sensor_id;sensor_type;location;lat;lon;timestamp;temperature;humidity
27544;DHT22;17996;51.056;3.656;2024-01-16T00:01:59;3.40;99.90
27544;DHT22;17996;51.056;3.656;2024-01-16T00:04:26;3.30;99.90
27544;DHT22;17996;51.056;3.656;2024-01-16T00:06:58;3.30;99.90
27544;DHT22;17996;51.056;3.656;2024-01-16T00:09:27;3.30;99.90
27544;DHT22;17996;51.056;3.656;2024-01-16T00:11:58;3.20;99.90
27544;DHT22;17996;51.056;3.656;2024-01-16T00:14:25;3.20;99.90
27544;DHT22;17996;51.056;3.656;2024-01-16T00:16:54;3.10;99.90
27544;DHT22;17996;51.056;3.656;2024-01-16T00:19:20;3.10;99.90
27544;DHT22;17996;51.056;3.656;2024-01-16T00:21:48;3.10;99.90
27544;DHT22;17996;51.056;3.656;2024-01-16T00:24:20;3.00;99.90
27544;DHT22;17996;51.056;3.656;2024-01-16T00:26:49;3.00;99.90
27544;DHT22;17996;51.056;3.656;2024-01-16T00:29:16;2.90;99.90
27544;DHT22;17996;51.056;3.656;2024-01-16T00:31:45;2.90;99.90
27544;DHT22;17996;51.056;3.656;2024-01-16T00:34:16;2.90;99.90
27544;DHT22;17996;51.056;3.656;2024-01-16T00:36:45;2.80;99.90
27544;DHT22;17996;51.056;3.656;2024-01-16T00:39:14;2.80;99.90
27544;DHT22;17996;51.056;3.656;2024-01-16T00:41:43;2.80;99.90
27544;DHT22;17996;51.056;3.656;2024-01-16T00:44:10;2.80;99.90
27544;DHT22;17996;51.056;3.656;2024-01-16T00:46:37;2.70;99.90
27544;DHT22;17996;51.056;3.656;2024-01-16T00:49:04;2.70;99.90
27544;DHT22;17996;51.056;3.656;2024-01-16T00:51:30;2.60;99.90
27544;DHT22;17996;51.056;3.656;2024-01-16T00:53:59;2.60;99.90
27544;DHT22;17996;51.056;3.656;2024-01-16T00:56:28;2.60;99.90
27544;DHT22;17996;51.056;3.656;2024-01-16T00:59:00;2.60;99.90
27544;DHT22;17996;51.056;3.656;2024-01-16T01:01:28;2.60;99.90
27544;DHT22;17996;51.056;3.656;2024-01-16T01:03:54;2.60;99.90
27544;DHT22;17996;51.056;3.656;2024-01-16T01:06:20;2.50;99.90
27544;DHT22;17996;51.056;3.656;2024-01-16T01:08:49;2.50;99.90
27544;DHT22;17996;51.056;3.656;2024-01-16T01:11:17;2.50;99.90
27544;DHT22;17996;51.056;3.656;2024-01-16T01:13:43;2.50;99.90
27544;DHT22;17996;51.056;3.656;2024-01-16T01:16:11;2.50;99.90
27544;DHT22;17996;51.056;3.656;2024-01-16T01:18:40;2.50;99.90
27544;DHT22;17996;51.056;3.656;2024-01-16T01:21:09;2.50;99.90
27544;DHT22;17996;51.056;3.656;2024-01-16T01:23:38;2.50;99.90
27544;DHT22;17996;51.056;3.656;2024-01-16T01:26:07;2.50;99.90
27544;DHT22;17996;51.056;3.656;2024-01-16T01:28:35;2.50;99.90
27544;DHT22;17996;51.056;3.656;2024-01-16T01:31:01;2.50;99.90
27544;DHT22;17996;51.056;3.656;2024-01-16T01:33:28;2.50;99.90
27544;DHT22;17996;51.056;3.656;2024-01-16T01:35:54;2.50;99.90
27544;DHT22;17996;51.056;3.656;2024-01-16T01:38:20;2.50;99.90
27544;DHT22;17996;51.056;3.656;2024-01-16T01:40:45;2.50;99.90
27544;DHT22;17996;51.056;3.656;2024-01-16T01:43:26;2.50;99.90
27544;DHT22;17996;51.056;3.656;2024-01-16T01:46:16;2.30;99.90
27544;DHT22;17996;51.056;3.656;2024-01-16T01:48:47;2.50;99.90
27544;DHT22;17996;51.056;3.656;2024-01-16T01:51:14;2.50;99.90
27544;DHT22;17996;51.056;3.656;2024-01-16T01:53:44;2.50;99.90
27544;DHT22;17996;51.056;3.656;2024-01-16T01:56:18;2.50;99.90
27544;DHT22;17996;51.056;3.656;2024-01-16T01:58:53;2.50;99.90
27544;DHT22;17996;51.056;3.656;2024-01-16T02:01:22;2.50;99.90
27544;DHT22;17996;51.056;3.656;2024-01-16T02:03:51;2.50;99.90
27544;DHT22;17996;51.056;3.656;2024-01-16T02:06:18;2.50;99.90
27544;DHT22;17996;51.056;3.656;2024-01-16T02:08:45;2.50;99.90
27544;DHT22;17996;51.056;3.656;2024-01-16T02:11:11;2.40;99.90
27544;DHT22;17996;51.056;3.656;2024-01-16T02:13:37;2.50;99.90
27544;DHT22;17996;51.056;3.656;2024-01-16T02:16:03;2.50;99.90
27544;DHT22;17996;51.056;3.656;2024-01-16T02:18:37;2.50;99.90
27544;DHT22;17996;51.056;3.656;2024-01-16T02:21:05;2.50;99.90
27544;DHT22;17996;51.056;3.656;2024-01-16T02:23:32;2.50;99.90
27544;DHT22;17996;51.056;3.656;2024-01-16T02:26:01;2.50;99.90
27544;DHT22;17996;51.056;3.656;2024-01-16T02:28:31;2.50;99.90
27544;DHT22;17996;51.056;3.656;2024-01-16T02:30:59;2.50;99.90
27544;DHT22;17996;51.056;3.656;2024-01-16T02:33:24;2.50;99.90
27544;DHT22;17996;51.056;3.656;2024-01-16T02:35:53;2.50;99.90
27544;DHT22;17996;51.056;3.656;2024-01-16T02:38:22;2.50;99.90
27544;DHT22;17996;51.056;3.656;2024-01-16T02:40:50;2.40;99.90
27544;DHT22;17996;51.056;3.656;2024-01-16T02:43:17;2.40;99.90
27544;DHT22;17996;51.056;3.656;2024-01-16T02:45:45;2.40;99.90
27544;DHT22;17996;51.056;3.656;2024-01-16T02:48:14;2.50;99.90
27544;DHT22;17996;51.056;3.656;2024-01-16T02:50:43;2.50;99.90
27544;DHT22;17996;51.056;3.656;2024-01-16T02:53:12;2.50;99.90
27544;DHT22;17996;51.056;3.656;2024-01-16T02:55:38;2.40;99.90
27544;DHT22;17996;51.056;3.656;2024-01-16T02:58:05;2.40;99.90
27544;DHT22;17996;51.056;3.656;2024-01-16T03:00:34;2.40;99.90
27544;DHT22;17996;51.056;3.656;2024-01-16T03:03:02;2.40;99.90
27544;DHT22;17996;51.056;3.656;2024-01-16T03:05:31;2.50;99.90
27544;DHT22;17996;51.056;3.656;2024-01-16T03:07:57;2.50;99.90
27544;DHT22;17996;51.056;3.656;2024-01-16T03:10:26;2.50;99.90
27544;DHT22;17996;51.056;3.656;2024-01-16T03:12:54;2.50;99.90
27544;DHT22;17996;51.056;3.656;2024-01-16T03:15:23;2.50;99.90
27544;DHT22;17996;51.056;3.656;2024-01-16T03:17:51;2.40;99.90
27544;DHT22;17996;51.056;3.656;2024-01-16T03:20:20;2.40;99.90
27544;DHT22;17996;51.056;3.656;2024-01-16T03:22:48;2.40;99.90
27544;DHT22;17996;51.056;3.656;2024-01-16T03:25:18;2.40;99.90
27544;DHT22;17996;51.056;3.656;2024-01-16T03:27:44;2.40;99.90
27544;DHT22;17996;51.056;3.656;2024-01-16T03:30:10;2.40;99.90
27544;DHT22;17996;51.056;3.656;2024-01-16T03:32:37;2.40;99.90
27544;DHT22;17996;51.056;3.656;2024-01-16T03:35:06;2.40;99.90
27544;DHT22;17996;51.056;3.656;2024-01-16T03:37:34;2.40;99.90
27544;DHT22;17996;51.056;3.656;2024-01-16T03:40:00;2.40;99.90
27544;DHT22;17996;51.056;3.656;2024-01-16T03:42:29;2.40;99.90
27544;DHT22;17996;51.056;3.656;2024-01-16T03:44:57;2.40;99.90
27544;DHT22;17996;51.056;3.656;2024-01-16T03:47:23;2.40;99.90
27544;DHT22;17996;51.056;3.656;2024-01-16T03:49:51;2.40;99.90
27544;DHT22;17996;51.056;3.656;2024-01-16T03:52:17;2.40;99.90
27544;DHT22;17996;51.056;3.656;2024-01-16T03:54:43;2.40;99.90
27544;DHT22;17996;51.056;3.656;2024-01-16T03:57:09;2.40;99.90
27544;DHT22;17996;51.056;3.656;2024-01-16T03:59:37;2.40;99.90
27544;DHT22;17996;51.056;3.656;2024-01-16T04:02:06;2.40;99.90
27544;DHT22;17996;51.056;3.656;2024-01-16T04:04:35;2.40;99.90
27544;DHT22;17996;51.056;3.656;2024-01-16T04:07:02;2.40;99.90
27544;DHT22;17996;51.056;3.656;2024-01-16T04:09:29;2.30;99.90
27544;DHT22;17996;51.056;3.656;2024-01-16T04:11:55;2.40;99.90
27544;DHT22;17996;51.056;3.656;2024-01-16T04:14:24;2.30;99.90
27544;DHT22;17996;51.056;3.656;2024-01-16T04:16:51;2.30;99.90
27544;DHT22;17996;51.056;3.656;2024-01-16T04:19:16;2.30;99.90
27544;DHT22;17996;51.056;3.656;2024-01-16T04:21:45;2.30;99.90
27544;DHT22;17996;51.056;3.656;2024-01-16T04:24:14;2.30;99.90
27544;DHT22;17996;51.056;3.656;2024-01-16T04:26:42;2.30;99.90
27544;DHT22;17996;51.056;3.656;2024-01-16T04:29:10;2.30;99.90
27544;DHT22;17996;51.056;3.656;2024-01-16T04:31:41;2.30;99.90
27544;DHT22;17996;51.056;3.656;2024-01-16T04:34:07;2.30;99.90
27544;DHT22;17996;51.056;3.656;2024-01-16T04:36:34;2.30;99.90
27544;DHT22;17996;51.056;3.656;2024-01-16T04:39:03;2.30;99.90
27544;DHT22;17996;51.056;3.656;2024-01-16T04:41:29;2.20;99.90
27544;DHT22;17996;51.056;3.656;2024-01-16T04:43:58;2.30;99.90
27544;DHT22;17996;51.056;3.656;2024-01-16T04:46:26;2.30;99.90
27544;DHT22;17996;51.056;3.656;2024-01-16T04:48:55;2.30;99.90
27544;DHT22;17996;51.056;3.656;2024-01-16T04:51:22;2.30;99.90
27544;DHT22;17996;51.056;3.656;2024-01-16T04:53:50;2.30;99.90
27544;DHT22;17996;51.056;3.656;2024-01-16T04:56:19;2.30;99.90
27544;DHT22;17996;51.056;3.656;2024-01-16T04:58:48;2.30;99.90
27544;DHT22;17996;51.056;3.656;2024-01-16T05:01:16;2.20;99.90
27544;DHT22;17996;51.056;3.656;2024-01-16T05:03:45;2.20;99.90
27544;DHT22;17996;51.056;3.656;2024-01-16T05:06:20;2.20;99.90
27544;DHT22;17996;51.056;3.656;2024-01-16T05:08:46;2.10;99.90
27544;DHT22;17996;51.056;3.656;2024-01-16T05:11:14;2.10;99.90
27544;DHT22;17996;51.056;3.656;2024-01-16T05:13:43;2.00;99.90
27544;DHT22;17996;51.056;3.656;2024-01-16T05:16:13;2.00;99.90
27544;DHT22;17996;51.056;3.656;2024-01-16T05:18:42;2.00;99.90
27544;DHT22;17996;51.056;3.656;2024-01-16T05:21:14;1.90;99.90
27544;DHT22;17996;51.056;3.656;2024-01-16T05:23:43;1.90;99.90
27544;DHT22;17996;51.056;3.656;2024-01-16T05:26:12;1.90;99.90
27544;DHT22;17996;51.056;3.656;2024-01-16T05:28:39;1.80;99.90
27544;DHT22;17996;51.056;3.656;2024-01-16T05:31:07;1.80;99.90
27544;DHT22;17996;51.056;3.656;2024-01-16T05:33:33;1.80;99.90
27544;DHT22;17996;51.056;3.656;2024-01-16T05:36:00;1.80;99.90
27544;DHT22;17996;51.056;3.656;2024-01-16T05:38:25;1.80;99.90
27544;DHT22;17996;51.056;3.656;2024-01-16T05:40:54;1.80;99.90
27544;DHT22;17996;51.056;3.656;2024-01-16T05:43:23;1.80;99.90
27544;DHT22;17996;51.056;3.656;2024-01-16T05:45:49;1.80;99.90
27544;DHT22;17996;51.056;3.656;2024-01-16T05:48:18;1.70;99.90
27544;DHT22;17996;51.056;3.656;2024-01-16T05:50:44;1.70;99.90
27544;DHT22;17996;51.056;3.656;2024-01-16T05:53:11;1.80;99.90
27544;DHT22;17996;51.056;3.656;2024-01-16T05:55:40;1.80;99.90
27544;DHT22;17996;51.056;3.656;2024-01-16T05:58:09;1.80;99.90
27544;DHT22;17996;51.056;3.656;2024-01-16T06:00:36;1.90;99.90
27544;DHT22;17996;51.056;3.656;2024-01-16T06:03:02;1.80;99.90
27544;DHT22;17996;51.056;3.656;2024-01-16T06:05:34;1.90;99.90
27544;DHT22;17996;51.056;3.656;2024-01-16T06:08:02;1.90;99.90
27544;DHT22;17996;51.056;3.656;2024-01-16T06:10:31;1.90;99.90
27544;DHT22;17996;51.056;3.656;2024-01-16T06:13:00;1.90;99.90
27544;DHT22;17996;51.056;3.656;2024-01-16T06:15:29;1.90;99.90
27544;DHT22;17996;51.056;3.656;2024-01-16T06:17:55;1.90;99.90
27544;DHT22;17996;51.056;3.656;2024-01-16T06:20:24;1.90;99.90
27544;DHT22;17996;51.056;3.656;2024-01-16T06:22:54;1.90;99.90
27544;DHT22;17996;51.056;3.656;2024-01-16T06:25:23;1.90;99.90
27544;DHT22;17996;51.056;3.656;2024-01-16T06:27:51;1.90;99.90
27544;DHT22;17996;51.056;3.656;2024-01-16T06:30:21;1.80;99.90
27544;DHT22;17996;51.056;3.656;2024-01-16T06:32:50;1.80;99.90
27544;DHT22;17996;51.056;3.656;2024-01-16T06:35:17;1.90;99.90
27544;DHT22;17996;51.056;3.656;2024-01-16T06:37:49;1.80;99.90
27544;DHT22;17996;51.056;3.656;2024-01-16T06:40:20;1.80;99.90
27544;DHT22;17996;51.056;3.656;2024-01-16T06:42:49;1.70;99.90
27544;DHT22;17996;51.056;3.656;2024-01-16T06:45:16;1.70;99.90
27544;DHT22;17996;51.056;3.656;2024-01-16T06:47:45;1.70;99.90
27544;DHT22;17996;51.056;3.656;2024-01-16T06:50:13;1.70;99.90
27544;DHT22;17996;51.056;3.656;2024-01-16T06:52:42;1.70;99.90
27544;DHT22;17996;51.056;3.656;2024-01-16T06:55:09;1.70;99.90
27544;DHT22;17996;51.056;3.656;2024-01-16T06:57:37;1.70;99.90
27544;DHT22;17996;51.056;3.656;2024-01-16T07:00:03;1.80;99.90
27544;DHT22;17996;51.056;3.656;2024-01-16T07:02:34;1.80;99.90
27544;DHT22;17996;51.056;3.656;2024-01-16T07:05:03;1.70;99.90
27544;DHT22;17996;51.056;3.656;2024-01-16T07:07:30;1.80;99.90
27544;DHT22;17996;51.056;3.656;2024-01-16T07:09:58;1.70;99.90
27544;DHT22;17996;51.056;3.656;2024-01-16T07:12:27;1.80;99.90
27544;DHT22;17996;51.056;3.656;2024-01-16T07:14:54;1.80;99.90
27544;DHT22;17996;51.056;3.656;2024-01-16T07:17:23;1.80;99.90
27544;DHT22;17996;51.056;3.656;2024-01-16T07:19:55;1.80;99.90
27544;DHT22;17996;51.056;3.656;2024-01-16T07:22:24;1.90;99.90
27544;DHT22;17996;51.056;3.656;2024-01-16T07:24:52;1.90;99.90
27544;DHT22;17996;51.056;3.656;2024-01-16T07:27:18;1.90;99.90
27544;DHT22;17996;51.056;3.656;2024-01-16T07:29:45;2.00;99.90
27544;DHT22;17996;51.056;3.656;2024-01-16T07:32:11;2.00;99.90
27544;DHT22;17996;51.056;3.656;2024-01-16T07:34:40;2.00;99.90
27544;DHT22;17996;51.056;3.656;2024-01-16T07:37:05;2.10;99.90
27544;DHT22;17996;51.056;3.656;2024-01-16T07:39:31;2.10;99.90
27544;DHT22;17996;51.056;3.656;2024-01-16T07:41:57;2.10;99.90
27544;DHT22;17996;51.056;3.656;2024-01-16T07:44:22;2.10;99.90
27544;DHT22;17996;51.056;3.656;2024-01-16T07:46:51;2.10;99.90
27544;DHT22;17996;51.056;3.656;2024-01-16T07:49:17;2.10;99.90
27544;DHT22;17996;51.056;3.656;2024-01-16T07:51:43;2.10;99.90
27544;DHT22;17996;51.056;3.656;2024-01-16T07:54:09;2.10;99.90
27544;DHT22;17996;51.056;3.656;2024-01-16T07:56:38;2.10;99.90
27544;DHT22;17996;51.056;3.656;2024-01-16T07:59:05;2.10;99.90
27544;DHT22;17996;51.056;3.656;2024-01-16T08:01:32;2.20;99.90
27544;DHT22;17996;51.056;3.656;2024-01-16T08:03:58;2.20;99.90
27544;DHT22;17996;51.056;3.656;2024-01-16T08:06:26;2.20;99.90
27544;DHT22;17996;51.056;3.656;2024-01-16T08:08:52;2.20;99.90
27544;DHT22;17996;51.056;3.656;2024-01-16T08:11:20;2.20;99.90
27544;DHT22;17996;51.056;3.656;2024-01-16T08:13:46;2.20;99.90
27544;DHT22;17996;51.056;3.656;2024-01-16T08:16:12;2.20;99.90
27544;DHT22;17996;51.056;3.656;2024-01-16T08:18:39;2.30;99.90
27544;DHT22;17996;51.056;3.656;2024-01-16T08:21:05;2.30;99.90
27544;DHT22;17996;51.056;3.656;2024-01-16T08:23:37;2.30;99.90
27544;DHT22;17996;51.056;3.656;2024-01-16T08:26:04;2.30;99.90
27544;DHT22;17996;51.056;3.656;2024-01-16T08:28:33;2.30;99.90
27544;DHT22;17996;51.056;3.656;2024-01-16T08:31:00;2.30;99.90
27544;DHT22;17996;51.056;3.656;2024-01-16T08:33:25;2.30;99.90
27544;DHT22;17996;51.056;3.656;2024-01-16T08:35:51;2.30;99.90
27544;DHT22;17996;51.056;3.656;2024-01-16T08:38:17;2.40;99.90
27544;DHT22;17996;51.056;3.656;2024-01-16T08:40:43;2.40;99.90
27544;DHT22;17996;51.056;3.656;2024-01-16T08:43:09;2.40;99.90
27544;DHT22;17996;51.056;3.656;2024-01-16T08:45:36;2.40;99.90
27544;DHT22;17996;51.056;3.656;2024-01-16T08:48:02;2.40;99.90
27544;DHT22;17996;51.056;3.656;2024-01-16T08:50:28;2.40;99.90
27544;DHT22;17996;51.056;3.656;2024-01-16T08:52:54;2.30;99.90
27544;DHT22;17996;51.056;3.656;2024-01-16T08:55:20;2.30;99.90
27544;DHT22;17996;51.056;3.656;2024-01-16T08:57:48;2.30;99.90
27544;DHT22;17996;51.056;3.656;2024-01-16T09:00:19;2.20;99.90
27544;DHT22;17996;51.056;3.656;2024-01-16T09:02:45;2.20;99.90
27544;DHT22;17996;51.056;3.656;2024-01-16T09:05:11;2.20;99.90
27544;DHT22;17996;51.056;3.656;2024-01-16T09:07:41;2.20;99.90
27544;DHT22;17996;51.056;3.656;2024-01-16T09:10:13;2.20;99.90
27544;DHT22;17996;51.056;3.656;2024-01-16T09:12:42;2.30;99.90
27544;DHT22;17996;51.056;3.656;2024-01-16T09:15:08;2.20;99.90
27544;DHT22;17996;51.056;3.656;2024-01-16T09:17:35;2.20;99.90
27544;DHT22;17996;51.056;3.656;2024-01-16T09:20:02;2.20;99.90
27544;DHT22;17996;51.056;3.656;2024-01-16T09:22:28;2.20;99.90
27544;DHT22;17996;51.056;3.656;2024-01-16T09:24:57;2.20;99.90
27544;DHT22;17996;51.056;3.656;2024-01-16T09:27:24;2.30;99.90
27544;DHT22;17996;51.056;3.656;2024-01-16T09:29:52;2.30;99.90
27544;DHT22;17996;51.056;3.656;2024-01-16T09:32:24;2.30;99.90
27544;DHT22;17996;51.056;3.656;2024-01-16T09:34:51;2.30;99.90
27544;DHT22;17996;51.056;3.656;2024-01-16T09:37:17;2.20;99.90
27544;DHT22;17996;51.056;3.656;2024-01-16T09:39:45;2.20;99.90
27544;DHT22;17996;51.056;3.656;2024-01-16T09:42:11;2.20;99.90
27544;DHT22;17996;51.056;3.656;2024-01-16T09:44:37;2.20;99.90
27544;DHT22;17996;51.056;3.656;2024-01-16T09:47:05;2.20;99.90
27544;DHT22;17996;51.056;3.656;2024-01-16T09:49:33;2.20;99.90
27544;DHT22;17996;51.056;3.656;2024-01-16T09:52:05;2.20;99.90
27544;DHT22;17996;51.056;3.656;2024-01-16T09:54:32;2.20;99.90
27544;DHT22;17996;51.056;3.656;2024-01-16T09:57:00;2.20;99.90
27544;DHT22;17996;51.056;3.656;2024-01-16T09:59:32;2.30;99.90
27544;DHT22;17996;51.056;3.656;2024-01-16T10:01:58;2.30;99.90
27544;DHT22;17996;51.056;3.656;2024-01-16T10:04:26;2.30;99.90
27544;DHT22;17996;51.056;3.656;2024-01-16T10:06:53;2.30;99.90
27544;DHT22;17996;51.056;3.656;2024-01-16T10:09:21;2.30;99.90
27544;DHT22;17996;51.056;3.656;2024-01-16T10:11:53;2.30;99.90
27544;DHT22;17996;51.056;3.656;2024-01-16T10:14:21;2.40;99.90
27544;DHT22;17996;51.056;3.656;2024-01-16T10:17:03;2.40;99.90
27544;DHT22;17996;51.056;3.656;2024-01-16T10:19:54;2.40;99.90
27544;DHT22;17996;51.056;3.656;2024-01-16T10:22:25;2.50;99.90
27544;DHT22;17996;51.056;3.656;2024-01-16T10:27:35;2.50;99.90
27544;DHT22;17996;51.056;3.656;2024-01-16T10:30:01;2.60;99.90
27544;DHT22;17996;51.056;3.656;2024-01-16T10:32:33;2.60;99.90
27544;DHT22;17996;51.056;3.656;2024-01-16T10:35:13;2.60;99.90
27544;DHT22;17996;51.056;3.656;2024-01-16T10:37:53;2.60;99.90
27544;DHT22;17996;51.056;3.656;2024-01-16T10:40:22;2.70;99.90
27544;DHT22;17996;51.056;3.656;2024-01-16T10:43:02;2.70;99.90
27544;DHT22;17996;51.056;3.656;2024-01-16T10:45:30;2.70;99.90
27544;DHT22;17996;51.056;3.656;2024-01-16T10:48:05;2.80;99.90
27544;DHT22;17996;51.056;3.656;2024-01-16T10:50:40;2.80;99.90
27544;DHT22;17996;51.056;3.656;2024-01-16T10:53:13;2.80;99.90
27544;DHT22;17996;51.056;3.656;2024-01-16T10:55:51;2.80;99.90
27544;DHT22;17996;51.056;3.656;2024-01-16T10:58:21;2.80;99.90
27544;DHT22;17996;51.056;3.656;2024-01-16T11:00:51;2.90;99.90
27544;DHT22;17996;51.056;3.656;2024-01-16T11:03:49;2.90;99.90
27544;DHT22;17996;51.056;3.656;2024-01-16T11:06:18;2.90;99.90
27544;DHT22;17996;51.056;3.656;2024-01-16T11:08:48;3.00;99.90
27544;DHT22;17996;51.056;3.656;2024-01-16T11:11:15;3.00;99.90
27544;DHT22;17996;51.056;3.656;2024-01-16T11:13:42;3.00;99.90
27544;DHT22;17996;51.056;3.656;2024-01-16T11:16:12;3.00;99.90
27544;DHT22;17996;51.056;3.656;2024-01-16T11:18:39;3.00;99.90
27544;DHT22;17996;51.056;3.656;2024-01-16T11:21:09;3.00;99.90
27544;DHT22;17996;51.056;3.656;2024-01-16T11:23:36;3.10;99.90
27544;DHT22;17996;51.056;3.656;2024-01-16T11:26:31;3.10;99.90
27544;DHT22;17996;51.056;3.656;2024-01-16T11:31:56;3.20;99.90
27544;DHT22;17996;51.056;3.656;2024-01-16T11:37:13;3.20;99.90
27544;DHT22;17996;51.056;3.656;2024-01-16T11:39:40;3.20;99.90
27544;DHT22;17996;51.056;3.656;2024-01-16T11:42:06;3.20;99.90
27544;DHT22;17996;51.056;3.656;2024-01-16T11:44:51;3.20;99.90
27544;DHT22;17996;51.056;3.656;2024-01-16T11:47:20;3.20;99.90
27544;DHT22;17996;51.056;3.656;2024-01-16T11:50:11;3.30;99.90
27544;DHT22;17996;51.056;3.656;2024-01-16T11:52:42;3.20;99.90
27544;DHT22;17996;51.056;3.656;2024-01-16T11:55:33;3.30;99.90
27544;DHT22;17996;51.056;3.656;2024-01-16T12:00:36;3.30;99.90
27544;DHT22;17996;51.056;3.656;2024-01-16T12:03:06;3.30;99.90
27544;DHT22;17996;51.056;3.656;2024-01-16T12:05:33;3.30;99.90
27544;DHT22;17996;51.056;3.656;2024-01-16T12:07:58;3.40;99.90
27544;DHT22;17996;51.056;3.656;2024-01-16T12:10:27;3.40;99.90
27544;DHT22;17996;51.056;3.656;2024-01-16T12:12:58;3.40;99.90
27544;DHT22;17996;51.056;3.656;2024-01-16T12:15:25;3.40;99.90
27544;DHT22;17996;51.056;3.656;2024-01-16T12:17:58;3.40;99.90
27544;DHT22;17996;51.056;3.656;2024-01-16T12:20:28;3.50;99.90
27544;DHT22;17996;51.056;3.656;2024-01-16T12:23:14;3.50;99.90
27544;DHT22;17996;51.056;3.656;2024-01-16T12:25:43;3.60;99.90
27544;DHT22;17996;51.056;3.656;2024-01-16T12:28:08;3.50;99.90
27544;DHT22;17996;51.056;3.656;2024-01-16T12:30:39;3.50;99.90
27544;DHT22;17996;51.056;3.656;2024-01-16T12:33:13;3.50;99.90
27544;DHT22;17996;51.056;3.656;2024-01-16T12:35:41;3.60;99.90
27544;DHT22;17996;51.056;3.656;2024-01-16T12:38:08;3.60;99.90
27544;DHT22;17996;51.056;3.656;2024-01-16T12:40:40;3.60;99.90
27544;DHT22;17996;51.056;3.656;2024-01-16T12:43:09;3.70;99.90
27544;DHT22;17996;51.056;3.656;2024-01-16T12:45:37;3.70;99.90
27544;DHT22;17996;51.056;3.656;2024-01-16T12:48:09;3.70;99.90
27544;DHT22;17996;51.056;3.656;2024-01-16T12:50:36;3.70;99.90
27544;DHT22;17996;51.056;3.656;2024-01-16T12:55:35;3.70;99.90
27544;DHT22;17996;51.056;3.656;2024-01-16T12:58:22;3.70;99.90
27544;DHT22;17996;51.056;3.656;2024-01-16T13:00:54;3.70;99.90
27544;DHT22;17996;51.056;3.656;2024-01-16T13:03:25;3.70;99.90
27544;DHT22;17996;51.056;3.656;2024-01-16T13:05:57;3.80;99.90
27544;DHT22;17996;51.056;3.656;2024-01-16T13:08:23;3.80;99.90
27544;DHT22;17996;51.056;3.656;2024-01-16T13:11:07;3.80;99.90
27544;DHT22;17996;51.056;3.656;2024-01-16T13:13:35;3.80;99.90
27544;DHT22;17996;51.056;3.656;2024-01-16T13:16:03;3.80;99.90
27544;DHT22;17996;51.056;3.656;2024-01-16T13:18:34;3.80;99.90
27544;DHT22;17996;51.056;3.656;2024-01-16T13:21:01;3.80;99.90
27544;DHT22;17996;51.056;3.656;2024-01-16T13:23:29;3.80;99.90
27544;DHT22;17996;51.056;3.656;2024-01-16T13:25:55;3.80;99.90
27544;DHT22;17996;51.056;3.656;2024-01-16T13:28:24;3.80;99.90
27544;DHT22;17996;51.056;3.656;2024-01-16T13:30:50;3.90;99.90
27544;DHT22;17996;51.056;3.656;2024-01-16T13:33:16;3.80;99.90
27544;DHT22;17996;51.056;3.656;2024-01-16T13:35:45;3.80;99.90
27544;DHT22;17996;51.056;3.656;2024-01-16T13:38:15;3.80;99.90
27544;DHT22;17996;51.056;3.656;2024-01-16T13:40:48;3.80;99.90
27544;DHT22;17996;51.056;3.656;2024-01-16T13:43:16;3.90;99.90
27544;DHT22;17996;51.056;3.656;2024-01-16T13:45:41;3.90;99.90
27544;DHT22;17996;51.056;3.656;2024-01-16T13:48:08;3.80;99.90
27544;DHT22;17996;51.056;3.656;2024-01-16T13:50:38;3.80;99.90
27544;DHT22;17996;51.056;3.656;2024-01-16T13:53:05;3.90;99.90
27544;DHT22;17996;51.056;3.656;2024-01-16T13:55:35;3.90;99.90
27544;DHT22;17996;51.056;3.656;2024-01-16T13:58:04;3.90;99.90
27544;DHT22;17996;51.056;3.656;2024-01-16T14:00:36;3.90;99.90
27544;DHT22;17996;51.056;3.656;2024-01-16T14:03:04;3.90;99.90
27544;DHT22;17996;51.056;3.656;2024-01-16T14:05:35;3.90;99.90
27544;DHT22;17996;51.056;3.656;2024-01-16T14:08:04;3.90;99.90
27544;DHT22;17996;51.056;3.656;2024-01-16T14:10:33;3.90;99.90
27544;DHT22;17996;51.056;3.656;2024-01-16T14:13:01;3.90;99.90
27544;DHT22;17996;51.056;3.656;2024-01-16T14:15:31;3.90;99.90
27544;DHT22;17996;51.056;3.656;2024-01-16T14:17:59;3.80;99.90
27544;DHT22;17996;51.056;3.656;2024-01-16T14:20:26;3.90;99.90
27544;DHT22;17996;51.056;3.656;2024-01-16T14:22:53;3.80;99.90
27544;DHT22;17996;51.056;3.656;2024-01-16T14:25:20;3.90;99.90
27544;DHT22;17996;51.056;3.656;2024-01-16T14:28:02;3.90;99.90
27544;DHT22;17996;51.056;3.656;2024-01-16T14:30:29;3.90;99.90
27544;DHT22;17996;51.056;3.656;2024-01-16T14:32:54;3.80;99.90
27544;DHT22;17996;51.056;3.656;2024-01-16T14:35:24;3.90;99.90
27544;DHT22;17996;51.056;3.656;2024-01-16T14:37:53;3.80;99.90
27544;DHT22;17996;51.056;3.656;2024-01-16T14:40:22;3.80;99.90
27544;DHT22;17996;51.056;3.656;2024-01-16T14:42:56;3.90;99.90
27544;DHT22;17996;51.056;3.656;2024-01-16T14:45:26;3.80;99.90
27544;DHT22;17996;51.056;3.656;2024-01-16T14:47:54;3.90;99.90
27544;DHT22;17996;51.056;3.656;2024-01-16T14:50:21;3.90;99.90
27544;DHT22;17996;51.056;3.656;2024-01-16T14:52:51;3.90;99.90
27544;DHT22;17996;51.056;3.656;2024-01-16T14:55:20;3.80;99.90
27544;DHT22;17996;51.056;3.656;2024-01-16T14:57:48;3.80;99.90
27544;DHT22;17996;51.056;3.656;2024-01-16T15:00:28;3.80;99.90
27544;DHT22;17996;51.056;3.656;2024-01-16T15:02:57;3.80;99.90
27544;DHT22;17996;51.056;3.656;2024-01-16T15:05:23;3.70;99.90
27544;DHT22;17996;51.056;3.656;2024-01-16T15:07:51;3.70;99.90
27544;DHT22;17996;51.056;3.656;2024-01-16T15:10:20;3.70;99.90
27544;DHT22;17996;51.056;3.656;2024-01-16T15:12:47;3.70;99.90
27544;DHT22;17996;51.056;3.656;2024-01-16T15:15:15;3.70;99.90
27544;DHT22;17996;51.056;3.656;2024-01-16T15:17:42;3.70;99.90
27544;DHT22;17996;51.056;3.656;2024-01-16T15:20:09;3.70;99.90
27544;DHT22;17996;51.056;3.656;2024-01-16T15:22:42;3.70;99.90
27544;DHT22;17996;51.056;3.656;2024-01-16T15:25:12;3.60;99.90
27544;DHT22;17996;51.056;3.656;2024-01-16T15:27:44;3.60;99.90
27544;DHT22;17996;51.056;3.656;2024-01-16T15:30:13;3.60;99.90
27544;DHT22;17996;51.056;3.656;2024-01-16T15:32:45;3.50;99.90
27544;DHT22;17996;51.056;3.656;2024-01-16T15:35:12;3.50;99.90
27544;DHT22;17996;51.056;3.656;2024-01-16T15:37:40;3.40;99.90
27544;DHT22;17996;51.056;3.656;2024-01-16T15:40:10;3.40;99.90
27544;DHT22;17996;51.056;3.656;2024-01-16T15:42:38;3.40;99.90
27544;DHT22;17996;51.056;3.656;2024-01-16T15:45:06;3.30;99.90
27544;DHT22;17996;51.056;3.656;2024-01-16T15:47:43;3.30;99.90
27544;DHT22;17996;51.056;3.656;2024-01-16T15:50:10;3.30;99.90
27544;DHT22;17996;51.056;3.656;2024-01-16T15:52:36;3.30;99.90
27544;DHT22;17996;51.056;3.656;2024-01-16T15:55:05;3.20;99.90
27544;DHT22;17996;51.056;3.656;2024-01-16T15:57:30;3.20;99.90
27544;DHT22;17996;51.056;3.656;2024-01-16T15:59:57;3.10;99.90
27544;DHT22;17996;51.056;3.656;2024-01-16T16:02:24;3.10;99.90
27544;DHT22;17996;51.056;3.656;2024-01-16T16:04:50;3.00;99.90
27544;DHT22;17996;51.056;3.656;2024-01-16T16:07:17;3.00;99.90
27544;DHT22;17996;51.056;3.656;2024-01-16T16:09:43;3.00;99.90